createdAt,value
2023-01-04T00:00:03.217Z,8.15
2023-01-04T00:02:33.468Z,7.45
2023-01-04T00:05:02.668Z,8.02
2023-01-04T00:07:31.515Z,8.52
2023-01-04T00:10:01.391Z,8.25
2023-01-04T00:12:29.926Z,8.38
2023-01-04T00:14:58.349Z,8.15
2023-01-04T00:17:26.813Z,7.78
2023-01-04T00:19:55.381Z,8.77
2023-01-04T00:22:24.015Z,8.60
2023-01-04T00:24:52.745Z,8.63
2023-01-04T00:27:22.738Z,8.25
2023-01-04T00:29:51.230Z,8.50
2023-01-04T00:32:19.852Z,8.15
2023-01-04T00:34:48.719Z,8.95
2023-01-04T00:37:17.245Z,9.18
2023-01-04T00:39:45.684Z,8.40
2023-01-04T00:42:14.304Z,7.97
2023-01-04T00:44:44.999Z,8.20
2023-01-04T00:47:13.598Z,8.98
2023-01-04T00:49:42.023Z,8.00
2023-01-04T00:52:11.143Z,8.77
2023-01-04T00:54:40.762Z,9.07
2023-01-04T00:57:09.203Z,8.25
2023-01-04T00:59:38.092Z,8.48
2023-01-04T01:02:08.430Z,9.43
2023-01-04T01:04:37.853Z,8.98
2023-01-04T01:07:06.716Z,8.57
2023-01-04T01:09:35.486Z,9.20
2023-01-04T01:12:04.029Z,9.23
2023-01-04T01:14:32.393Z,8.95
2023-01-04T01:17:01.031Z,8.48
2023-01-04T01:19:32.285Z,9.68
2023-01-04T01:22:00.805Z,9.43
2023-01-04T01:24:29.645Z,8.85
2023-01-04T01:26:58.382Z,9.32
2023-01-04T01:29:27.458Z,9.57
2023-01-04T01:31:55.998Z,8.57
2023-01-04T01:34:24.666Z,8.80
2023-01-04T01:36:54.734Z,8.35
2023-01-04T01:39:23.278Z,8.50
2023-01-04T01:41:51.773Z,8.75
2023-01-04T01:44:58.233Z,9.75
2023-01-04T01:47:30.074Z,9.52
2023-01-04T01:49:59.559Z,8.43
2023-01-04T01:52:34.597Z,8.95
2023-01-04T01:55:06.410Z,8.52
2023-01-04T02:00:08.877Z,9.27
2023-01-04T02:02:51.524Z,9.15
2023-01-04T02:05:21.508Z,7.90
2023-01-04T02:07:52.150Z,8.57
2023-01-04T02:10:21.691Z,8.80
2023-01-04T02:12:52.185Z,9.18
2023-01-04T02:15:28.053Z,9.02
2023-01-04T02:18:04.383Z,8.80
2023-01-04T02:20:40.499Z,10.05
2023-01-04T02:23:48.734Z,8.68
2023-01-04T02:26:58.528Z,9.30
2023-01-04T02:30:06.114Z,8.80
2023-01-04T02:32:48.934Z,9.32
2023-01-04T02:35:25.173Z,9.15
2023-01-04T02:38:05.527Z,8.85
2023-01-04T02:40:44.014Z,9.05
2023-01-04T02:43:36.972Z,9.52
2023-01-04T02:46:11.422Z,8.32
2023-01-04T02:48:59.622Z,9.60
2023-01-04T02:51:31.308Z,9.82
2023-01-04T02:54:05.025Z,9.50
2023-01-04T02:56:46.427Z,9.32
2023-01-04T02:59:34.879Z,8.65
2023-01-04T03:02:35.593Z,9.13
2023-01-04T03:05:32.613Z,8.38
2023-01-04T03:08:12.868Z,8.57
2023-01-04T03:10:48.412Z,8.65
2023-01-04T03:13:20.608Z,8.82
2023-01-04T03:15:56.096Z,9.27
2023-01-04T03:18:28.896Z,9.32
2023-01-04T03:21:02.617Z,9.65
2023-01-04T03:23:53.443Z,8.90
2023-01-04T03:26:45.706Z,9.30
2023-01-04T03:29:36.476Z,9.20
2023-01-04T03:32:27.327Z,8.55
2023-01-04T03:35:14.222Z,9.10
2023-01-04T03:37:49.955Z,9.07
2023-01-04T03:40:42.714Z,9.70
2023-01-04T03:43:34.772Z,8.68
2023-01-04T03:46:24.313Z,9.27
2023-01-04T03:48:59.151Z,8.95
2023-01-04T03:51:30.843Z,8.35
2023-01-04T03:56:35.063Z,7.80
2023-01-04T03:59:03.888Z,9.25
2023-01-04T04:01:33.265Z,8.57
2023-01-04T04:04:19.986Z,9.70
2023-01-04T04:07:06.146Z,8.27
2023-01-04T04:09:36.399Z,10.15
2023-01-04T04:12:05.147Z,10.05
2023-01-04T04:14:34.405Z,10.38
2023-01-04T04:17:03.118Z,10.88
2023-01-04T04:19:32.291Z,11.45
2023-01-04T04:22:00.803Z,12.00
2023-01-04T04:24:29.522Z,13.93
2023-01-04T04:26:59.512Z,13.32
2023-01-04T04:29:27.950Z,11.73
2023-01-04T04:31:56.643Z,14.02
2023-01-04T04:34:25.318Z,14.63
2023-01-04T04:36:53.792Z,12.90
2023-01-04T04:39:22.343Z,12.43
2023-01-04T04:41:49.982Z,11.45
2023-01-04T04:44:21.432Z,12.27
2023-01-04T04:49:19.825Z,11.82
2023-01-04T04:51:48.544Z,11.00
2023-01-04T04:54:20.154Z,10.82
2023-01-04T04:56:48.877Z,10.45
2023-01-04T04:59:19.328Z,11.60
2023-01-04T05:01:48.063Z,10.32
2023-01-04T05:04:19.828Z,11.02
2023-01-04T05:06:50.597Z,11.50
2023-01-04T05:09:19.818Z,9.97
2023-01-04T05:12:06.381Z,9.98
2023-01-04T05:14:36.314Z,8.40
2023-01-04T05:17:04.799Z,9.13
2023-01-04T05:19:33.299Z,8.85
2023-01-04T05:22:01.735Z,9.20
2023-01-04T05:24:30.324Z,9.30
2023-01-04T05:26:58.805Z,9.90
2023-01-04T05:29:44.940Z,8.88
2023-01-04T05:32:14.961Z,8.98
2023-01-04T05:34:43.627Z,9.10
2023-01-04T05:37:12.321Z,9.00
2023-01-04T05:39:40.924Z,8.45
2023-01-04T05:42:28.482Z,8.82
2023-01-04T05:44:58.760Z,8.00
2023-01-04T05:47:29.246Z,8.80
2023-01-04T05:49:57.797Z,8.25
2023-01-04T05:52:26.588Z,9.63
2023-01-04T05:54:55.070Z,9.30
2023-01-04T05:57:23.713Z,9.05
2023-01-04T05:59:52.859Z,9.15
2023-01-04T06:02:24.683Z,8.00
2023-01-04T06:04:59.218Z,9.18
2023-01-04T06:07:29.362Z,8.77
2023-01-04T06:09:58.443Z,8.70
2023-01-04T06:12:27.070Z,9.95
2023-01-04T06:14:55.602Z,9.50
2023-01-04T06:17:24.204Z,9.13
2023-01-04T06:19:54.341Z,9.48
2023-01-04T06:22:22.962Z,10.07
2023-01-04T06:24:51.526Z,10.30
2023-01-04T06:27:20.204Z,9.82
2023-01-04T06:29:48.888Z,9.10
2023-01-04T06:32:17.840Z,9.45
2023-01-04T06:34:46.403Z,9.27
2023-01-04T06:37:17.010Z,10.82
2023-01-04T06:39:45.436Z,9.20
2023-01-04T06:42:28.107Z,9.23
2023-01-04T06:44:56.826Z,11.15
2023-01-04T06:47:25.510Z,9.95
2023-01-04T06:49:54.425Z,9.10
2023-01-04T06:52:24.923Z,8.85
2023-01-04T06:54:53.505Z,8.55
2023-01-04T06:57:22.069Z,9.57
2023-01-04T06:59:51.454Z,9.77
2023-01-04T07:02:21.495Z,9.00
2023-01-04T07:04:50.520Z,9.60
2023-01-04T07:07:19.521Z,9.38
2023-01-04T07:09:49.753Z,10.93
2023-01-04T07:12:18.479Z,9.25
2023-01-04T07:14:46.956Z,10.18
2023-01-04T07:17:15.566Z,10.93
2023-01-04T07:19:44.104Z,11.13
2023-01-04T07:22:13.376Z,10.52
2023-01-04T07:24:43.332Z,12.18
2023-01-04T07:27:13.357Z,13.80
2023-01-04T07:29:44.464Z,11.75
2023-01-04T07:32:14.164Z,12.10
2023-01-04T07:34:43.464Z,11.57
2023-01-04T07:37:13.300Z,10.10
2023-01-04T07:39:44.065Z,11.30
2023-01-04T07:42:14.073Z,10.77
2023-01-04T07:44:42.642Z,10.90
2023-01-04T07:47:11.821Z,11.32
2023-01-04T07:49:40.363Z,11.48
2023-01-04T07:52:08.951Z,12.70
2023-01-04T07:54:37.566Z,12.82
2023-01-04T07:57:06.136Z,13.23
2023-01-04T07:59:36.472Z,13.18
2023-01-04T08:02:05.543Z,11.88
2023-01-04T08:04:35.442Z,11.45
2023-01-04T08:07:04.351Z,11.75
2023-01-04T08:09:32.882Z,12.40
2023-01-04T08:12:01.816Z,12.43
2023-01-04T08:14:30.419Z,12.77
2023-01-04T08:17:00.552Z,12.73
2023-01-04T08:19:29.608Z,11.82
2023-01-04T08:21:58.241Z,12.27
2023-01-04T08:24:27.574Z,11.40
2023-01-04T08:26:56.471Z,12.15
2023-01-04T08:29:28.170Z,11.50
2023-01-04T08:32:02.952Z,11.48
2023-01-04T08:34:32.437Z,11.88
2023-01-04T08:37:00.776Z,11.65
2023-01-04T08:39:29.736Z,11.23
2023-01-04T08:42:06.882Z,11.73
2023-01-04T08:44:43.893Z,10.63
2023-01-04T08:47:14.039Z,11.27
2023-01-04T08:49:43.354Z,10.98
2023-01-04T08:52:12.422Z,12.48
2023-01-04T08:54:42.346Z,12.85
2023-01-04T08:57:10.949Z,13.43
2023-01-04T08:59:40.074Z,13.13
2023-01-04T09:02:22.105Z,12.50
2023-01-04T09:04:51.485Z,12.63
2023-01-04T09:07:20.517Z,11.77
2023-01-04T09:09:49.316Z,13.13
2023-01-04T09:12:17.973Z,12.48
2023-01-04T09:14:46.486Z,12.85
2023-01-04T09:17:17.304Z,12.68
2023-01-04T09:19:45.829Z,13.90
2023-01-04T09:22:14.542Z,12.55
2023-01-04T09:24:43.637Z,11.85
2023-01-04T09:27:12.421Z,12.70
2023-01-04T09:29:41.576Z,12.95
2023-01-04T09:32:16.150Z,11.93
2023-01-04T09:34:46.899Z,12.75
2023-01-04T09:37:15.481Z,12.00
2023-01-04T09:39:44.458Z,12.10
2023-01-04T09:42:21.856Z,11.32
2023-01-04T09:45:22.515Z,10.80
2023-01-04T09:47:48.897Z,10.75
2023-01-04T09:50:23.461Z,10.40
2023-01-04T09:53:02.633Z,11.73
2023-01-04T09:55:40.765Z,10.63
2023-01-04T09:58:21.786Z,10.88
2023-01-04T10:00:55.250Z,9.93
2023-01-04T10:03:26.823Z,10.15
2023-01-04T10:05:57.914Z,10.25
2023-01-04T10:08:26.700Z,9.47
2023-01-04T10:11:06.971Z,9.20
2023-01-04T10:13:59.047Z,9.00
2023-01-04T10:17:11.774Z,9.50
2023-01-04T10:22:46.230Z,6.38
2023-01-04T10:25:25.894Z,9.38
2023-01-04T10:28:08.310Z,9.63
2023-01-04T10:30:43.663Z,9.88
2023-01-04T10:33:15.506Z,8.85
2023-01-04T10:38:18.858Z,9.27
2023-01-04T10:40:50.567Z,9.25
2023-01-04T10:43:32.024Z,10.43
2023-01-04T10:46:27.142Z,8.97
2023-01-04T10:49:00.964Z,9.02
2023-01-04T10:51:36.765Z,9.30
2023-01-04T10:54:18.134Z,8.02
2023-01-04T10:56:52.827Z,8.70
2023-01-04T10:59:27.588Z,8.18
2023-01-04T11:02:00.823Z,7.70
2023-01-04T11:04:34.751Z,7.75
2023-01-04T11:07:10.158Z,8.50
2023-01-04T11:09:48.011Z,8.48
2023-01-04T11:12:20.483Z,8.00
2023-01-04T11:14:50.278Z,9.30
2023-01-04T11:17:19.414Z,10.32
2023-01-04T11:19:49.143Z,10.05
2023-01-04T11:22:23.522Z,9.40
2023-01-04T11:27:49.054Z,7.10
2023-01-04T11:30:21.317Z,8.20
2023-01-04T11:32:56.409Z,7.65
2023-01-04T11:35:42.626Z,8.23
2023-01-04T11:38:15.654Z,7.53
2023-01-04T11:40:57.699Z,7.25
2023-01-04T11:43:28.207Z,6.63
2023-01-04T11:46:02.689Z,6.63
2023-01-04T11:48:40.104Z,7.45
2023-01-04T11:51:19.575Z,6.57
2023-01-04T11:53:59.148Z,7.30
2023-01-04T11:56:31.253Z,6.68
2023-01-04T12:01:51.812Z,7.10
2023-01-04T12:04:25.364Z,7.90
2023-01-04T12:06:56.969Z,7.93
2023-01-04T12:11:57.535Z,8.55
2023-01-04T12:14:28.175Z,10.02
2023-01-04T12:17:03.143Z,11.13
2023-01-04T12:19:32.962Z,11.27
2023-01-04T12:22:03.979Z,10.63
2023-01-04T12:24:35.343Z,9.15
2023-01-04T12:27:05.545Z,8.77
2023-01-04T12:29:47.178Z,8.40
2023-01-04T12:32:55.133Z,8.13
2023-01-04T12:36:04.097Z,8.10
2023-01-04T12:39:29.227Z,7.38
2023-01-04T12:42:24.899Z,7.13
2023-01-04T12:45:18.562Z,7.45
2023-01-04T12:48:08.011Z,7.43
2023-01-04T12:51:37.256Z,7.45
2023-01-04T12:54:24.707Z,6.03
2023-01-04T12:57:13.010Z,6.13
2023-01-04T12:59:57.274Z,5.75
2023-01-04T13:02:28.783Z,6.50
2023-01-04T13:05:45.168Z,5.63
2023-01-04T13:07:51.847Z,5.60
2023-01-04T13:10:28.364Z,5.70
2023-01-04T13:13:22.358Z,5.18
2023-01-04T13:16:04.802Z,5.80
2023-01-04T13:18:39.274Z,5.68
2023-01-04T13:21:14.310Z,5.97
2023-01-04T13:23:51.260Z,6.28
2023-01-04T13:26:38.744Z,6.75
2023-01-04T13:29:19.602Z,5.70
2023-01-04T13:31:58.665Z,5.88
2023-01-04T13:34:32.140Z,6.90
2023-01-04T13:37:15.375Z,6.43
2023-01-04T13:39:46.310Z,6.75
2023-01-04T13:42:22.633Z,7.47
2023-01-04T13:45:25.051Z,6.85
2023-01-04T13:47:59.336Z,6.68
2023-01-04T13:50:35.033Z,7.72
2023-01-04T13:53:07.964Z,7.10
2023-01-04T13:55:38.637Z,7.93
2023-01-04T13:58:09.122Z,7.65
2023-01-04T14:00:45.385Z,7.70
2023-01-04T14:03:25.881Z,7.32
2023-01-04T14:06:02.758Z,7.97
2023-01-04T14:08:36.269Z,8.70
2023-01-04T14:11:39.274Z,9.18
2023-01-04T14:14:20.022Z,9.23
2023-01-04T14:16:49.569Z,9.27
2023-01-04T14:19:46.891Z,9.32
2023-01-04T14:22:52.811Z,9.27
2023-01-04T14:25:56.662Z,11.07
2023-01-04T14:28:41.876Z,10.18
2023-01-04T14:31:29.236Z,9.23
2023-01-04T14:33:58.531Z,9.25
2023-01-04T14:36:30.611Z,8.98
2023-01-04T14:39:19.492Z,8.27
2023-01-04T14:41:57.775Z,8.00
2023-01-04T14:44:30.708Z,8.18
2023-01-04T14:47:01.040Z,8.10
2023-01-04T14:49:30.201Z,8.65
2023-01-04T14:52:01.308Z,7.85
2023-01-04T14:54:31.861Z,7.80
2023-01-04T14:57:00.860Z,8.57
2023-01-04T14:59:29.990Z,11.63
2023-01-04T15:01:59.672Z,10.15
2023-01-04T15:04:28.370Z,14.35
2023-01-04T15:06:58.538Z,14.07
2023-01-04T15:09:29.409Z,12.40
2023-01-04T15:11:58.467Z,10.98
2023-01-04T15:14:27.235Z,10.40
2023-01-04T15:16:55.702Z,10.65
2023-01-04T15:19:24.219Z,9.93
2023-01-04T15:21:53.750Z,10.45
2023-01-04T15:24:22.685Z,10.48
2023-01-04T15:26:52.665Z,12.23
2023-01-04T15:29:21.382Z,13.50
2023-01-04T15:31:50.106Z,11.82
2023-01-04T15:34:18.936Z,11.00
2023-01-04T15:36:47.733Z,11.00
2023-01-04T15:39:16.772Z,10.50
2023-01-04T15:42:02.665Z,9.57
2023-01-04T15:44:32.618Z,11.02
2023-01-04T15:47:01.490Z,10.50
2023-01-04T15:49:31.905Z,10.38
2023-01-04T15:52:00.812Z,9.23
2023-01-04T15:54:30.005Z,10.60
2023-01-04T15:56:58.729Z,10.18
2023-01-04T15:59:27.358Z,9.85
2023-01-04T16:01:57.961Z,9.07
2023-01-04T16:04:27.768Z,9.70
2023-01-04T16:06:56.646Z,9.32
2023-01-04T16:09:25.437Z,9.18
2023-01-04T16:12:11.787Z,9.65
2023-01-04T16:14:40.532Z,9.13
2023-01-04T16:17:11.065Z,7.18
2023-01-04T16:19:39.759Z,8.43
2023-01-04T16:22:08.779Z,5.90
2023-01-04T16:25:09.428Z,6.40
2023-01-04T16:27:33.105Z,4.97
2023-01-04T16:30:05.159Z,5.10
2023-01-04T16:32:36.138Z,5.45
2023-01-04T16:35:05.487Z,4.50
2023-01-04T16:37:34.019Z,4.90
2023-01-04T16:40:07.204Z,5.15
2023-01-04T16:42:37.200Z,5.40
2023-01-04T16:45:06.838Z,4.70
2023-01-04T16:47:42.388Z,5.20
2023-01-04T16:50:13.255Z,5.22
2023-01-04T16:52:42.360Z,5.50
2023-01-04T16:55:11.895Z,5.22
2023-01-04T16:57:40.599Z,4.97
2023-01-04T17:00:11.536Z,5.32
2023-01-04T17:02:41.960Z,4.45
2023-01-04T17:05:10.923Z,5.03
2023-01-04T17:07:40.057Z,4.70
2023-01-04T17:10:09.441Z,4.65
2023-01-04T17:12:47.562Z,4.85
2023-01-04T17:18:07.944Z,4.80
2023-01-04T17:20:37.994Z,5.53
2023-01-04T17:23:07.859Z,4.93
2023-01-04T17:25:36.732Z,4.97
2023-01-04T17:28:05.895Z,4.80
2023-01-04T17:30:34.769Z,5.10
2023-01-04T17:33:03.683Z,5.15
2023-01-04T17:35:37.515Z,5.18
2023-01-04T17:38:07.068Z,4.72
2023-01-04T17:40:36.145Z,5.18
2023-01-04T17:43:05.247Z,5.20
2023-01-04T17:45:34.398Z,5.70
2023-01-04T17:48:03.493Z,5.00
2023-01-04T17:50:33.532Z,5.43
2023-01-04T17:53:02.256Z,5.68
2023-01-04T17:55:30.936Z,5.55
2023-01-04T17:58:02.391Z,5.10
2023-01-04T18:00:33.324Z,5.35
2023-01-04T18:03:02.066Z,4.88
2023-01-04T18:05:39.424Z,5.18
2023-01-04T18:08:21.175Z,5.18
2023-01-04T18:11:06.598Z,6.22
2023-01-04T18:13:37.405Z,5.20
2023-01-04T18:16:23.868Z,5.53
2023-01-04T18:18:53.280Z,5.95
2023-01-04T18:21:29.125Z,5.57
2023-01-04T18:24:34.874Z,5.72
2023-01-04T18:29:39.699Z,5.28
2023-01-04T18:32:08.312Z,5.55
2023-01-04T18:34:36.939Z,6.53
2023-01-04T18:37:05.538Z,5.50
2023-01-04T18:39:35.582Z,6.18
2023-01-04T18:42:04.529Z,4.90
2023-01-04T18:44:34.888Z,6.10
2023-01-04T18:47:04.964Z,5.37
2023-01-04T18:49:33.939Z,5.45
2023-01-04T18:52:02.523Z,4.93
2023-01-04T18:54:31.320Z,4.93
2023-01-04T18:57:01.991Z,4.65
2023-01-04T18:59:31.521Z,4.85
2023-01-04T19:02:02.237Z,4.50
2023-01-04T19:04:32.442Z,4.50
2023-01-04T19:07:04.009Z,4.32
2023-01-04T19:09:32.604Z,4.90
2023-01-04T19:12:02.878Z,4.55
2023-01-04T19:14:31.573Z,4.90
2023-01-04T19:17:00.472Z,4.35
2023-01-04T19:19:29.449Z,4.25
2023-01-04T19:21:58.291Z,3.85
2023-01-04T19:24:27.287Z,4.65
2023-01-04T19:27:02.791Z,4.05
2023-01-04T19:29:34.156Z,4.18
2023-01-04T19:32:02.821Z,4.05
2023-01-04T19:34:31.643Z,3.45
2023-01-04T19:37:00.428Z,3.78
2023-01-04T19:39:29.236Z,3.97
2023-01-04T19:41:57.905Z,4.10
2023-01-04T19:44:26.584Z,3.90
2023-01-04T19:46:56.866Z,3.90
2023-01-04T19:49:25.368Z,3.78
2023-01-04T19:51:53.983Z,3.55
2023-01-04T19:54:26.005Z,3.70
2023-01-04T19:59:24.090Z,4.07
2023-01-04T20:01:52.959Z,4.05
2023-01-04T20:04:23.116Z,4.13
2023-01-04T20:06:51.885Z,4.20
2023-01-04T20:09:25.998Z,3.97
2023-01-04T20:12:00.722Z,3.45
2023-01-04T20:14:31.842Z,3.95
2023-01-04T20:17:00.890Z,3.90
2023-01-04T20:19:31.019Z,3.85
2023-01-04T20:22:00.137Z,3.88
2023-01-04T20:24:29.150Z,4.40
2023-01-04T20:26:57.898Z,4.32
2023-01-04T20:29:26.829Z,4.05
2023-01-04T20:31:56.066Z,3.55
2023-01-04T20:34:24.822Z,3.83
2023-01-04T20:36:54.731Z,3.88
2023-01-04T20:39:23.478Z,4.47
2023-01-04T20:42:09.671Z,4.10
2023-01-04T20:44:39.281Z,4.32
2023-01-04T20:47:07.958Z,3.80
2023-01-04T20:49:36.558Z,3.95
2023-01-04T20:52:06.631Z,4.05
2023-01-04T20:54:35.236Z,4.32
2023-01-04T20:57:04.009Z,4.38
2023-01-04T20:59:32.597Z,4.22
2023-01-04T21:02:03.480Z,3.65
2023-01-04T21:04:32.347Z,4.53
2023-01-04T21:07:00.861Z,3.58
2023-01-04T21:09:31.118Z,3.70
2023-01-04T21:12:05.019Z,4.40
2023-01-04T21:14:38.331Z,3.65
2023-01-04T21:17:07.351Z,3.22
2023-01-04T21:19:35.944Z,3.85
2023-01-04T21:22:04.487Z,4.25
2023-01-04T21:24:36.353Z,3.67
2023-01-04T21:27:05.454Z,3.50
2023-01-04T21:29:34.346Z,4.55
2023-01-04T21:32:03.308Z,3.55
2023-01-04T21:34:33.617Z,3.75
2023-01-04T21:37:02.411Z,3.63
2023-01-04T21:39:31.246Z,3.20
2023-01-04T21:42:02.849Z,3.92
2023-01-04T21:44:33.608Z,3.47
2023-01-04T21:47:02.937Z,3.75
2023-01-04T21:49:31.884Z,3.30
2023-01-04T21:52:00.711Z,3.38
2023-01-04T21:54:29.544Z,3.17
2023-01-04T21:56:58.664Z,3.40
2023-01-04T21:59:28.953Z,3.10
2023-01-04T22:01:57.938Z,3.13
2023-01-04T22:04:26.977Z,3.05
2023-01-04T22:06:56.645Z,2.97
2023-01-04T22:09:26.075Z,2.70
2023-01-04T22:11:54.475Z,2.92
2023-01-04T22:14:23.009Z,3.70
2023-01-04T22:16:53.595Z,3.40
2023-01-04T22:19:22.416Z,3.25
2023-01-04T22:21:51.356Z,3.15
2023-01-04T22:24:20.228Z,3.30
2023-01-04T22:26:50.930Z,2.90
2023-01-04T22:29:21.006Z,3.08
2023-01-04T22:31:50.192Z,2.80
2023-01-04T22:34:20.461Z,3.13
2023-01-04T22:36:48.964Z,2.50
2023-01-04T22:39:17.580Z,2.80
2023-01-04T22:41:46.123Z,3.05
2023-01-04T22:44:14.814Z,2.80
2023-01-04T22:46:43.380Z,2.85
2023-01-04T22:49:12.108Z,2.75
2023-01-04T22:51:42.224Z,2.95
2023-01-04T22:54:11.736Z,2.45
2023-01-04T22:56:40.308Z,2.70
2023-01-04T22:59:09.143Z,2.53
2023-01-04T23:01:37.852Z,2.53
2023-01-04T23:04:07.276Z,2.30
2023-01-04T23:06:36.021Z,2.63
2023-01-04T23:09:08.953Z,2.30
2023-01-04T23:11:38.542Z,2.20
2023-01-04T23:14:08.661Z,2.60
2023-01-04T23:16:37.403Z,2.33
2023-01-04T23:19:08.525Z,2.58
2023-01-04T23:21:38.082Z,2.15
2023-01-04T23:24:09.397Z,2.08
2023-01-04T23:26:38.093Z,1.92
2023-01-04T23:29:06.628Z,2.70
2023-01-04T23:31:35.356Z,2.40
2023-01-04T23:34:06.239Z,2.33
2023-01-04T23:36:37.289Z,2.30
2023-01-04T23:39:09.940Z,2.80
2023-01-04T23:41:47.890Z,2.33
2023-01-04T23:46:54.018Z,2.38
2023-01-04T23:49:24.946Z,2.78
2023-01-04T23:51:53.800Z,2.83
2023-01-04T23:54:24.393Z,2.58
2023-01-04T23:56:53.203Z,2.60
2023-01-04T23:59:23.232Z,2.22
